M V Trinidad — LAIY4 — position and weather

sailwx.info

Track history (hours):
 
Tides and Currents Weather Stations Pressure Air Temp Water Temp Dewpoint Dewpoint Depression Visibility Wind Speed Wind Dir Waves Ship Positions

M V Trinidad

Last reported at 2015-Apr-18 02:34 UTC. Time now 2015-Apr-18 03:26 UTC.
Position N 51°41' E 002°27'.

Length 189 m; draft 8.8 m.

Type: Cargo ship. MMSI: 257425411.

Date/timePositionNaut miles runAvg speedWind from/ knotsBaromVisibWave heightAir tempDewpointWater temp
2015-Apr-18 02:34N 51°41' E 002°27'1615.9
2015-Apr-18 01:33N 51°28' E 002°12'1615.5
2015-Apr-18 00:34N 51°13' E 002°03'1616.4
2015-Apr-17 23:33N 51°05' E 001°41'1615.9
2015-Apr-17 22:33N 50°52' E 001°25'1614.6
2015-Apr-17 21:28N 50°38' E 001°13'1314.4
2015-Apr-17 20:33N 50°30' E 000°57'1514.5
2015-Apr-17 19:32N 50°26' E 000°35'3414.2
2015-Apr-17 17:09N 50°17' W 000°16'913.6
2015-Apr-17 16:31N 50°15' W 000°29'1712.8
2015-Apr-17 15:12N 50°10' W 000°55'711.3
2015-Apr-17 14:33N 50°08' W 001°06'5910.9
2015-Apr-17 09:07N 49°54' W 002°35'2414.7
2015-Apr-17 07:27N 49°49' W 003°12'  
Track history (hours):
 
Tides and Currents Weather Stations Pressure Air Temp Water Temp Dewpoint Dewpoint Depression Visibility Wind Speed Wind Dir Waves Ship Positions

M V Trinidad

Last reported at 2015-Apr-18 02:34 UTC. Time now 2015-Apr-18 03:26 UTC.
Position N 51°41' E 002°27'.

Length 189 m; draft 8.8 m.

Type: Cargo ship. MMSI: 257425411.

Date/timePositionNaut miles runAvg speedWind from/ knotsBaromVisibWave heightAir tempDewpointWater temp
2015-Apr-18 02:34N 51°41' E 002°27'1615.9
2015-Apr-18 01:33N 51°28' E 002°12'1615.5
2015-Apr-18 00:34N 51°13' E 002°03'1616.4
2015-Apr-17 23:33N 51°05' E 001°41'1615.9
2015-Apr-17 22:33N 50°52' E 001°25'1614.6
2015-Apr-17 21:28N 50°38' E 001°13'1314.4
2015-Apr-17 20:33N 50°30' E 000°57'1514.5
2015-Apr-17 19:32N 50°26' E 000°35'3414.2
2015-Apr-17 17:09N 50°17' W 000°16'913.6
2015-Apr-17 16:31N 50°15' W 000°29'1712.8
2015-Apr-17 15:12N 50°10' W 000°55'711.3
2015-Apr-17 14:33N 50°08' W 001°06'5910.9
2015-Apr-17 09:07N 49°54' W 002°35'2414.7
2015-Apr-17 07:27N 49°49' W 003°12'  

Dump ship's entire track history